METAR AND TAF INFORMATION
METAR FOR GMMX
ADDS - METARS form results

(1719 UTC 18 January 2018)
Data provider http://aviationweather.gov/adds/metars/
 
METAR text: GMMX 181700Z 26012KT 7000 FEW010 SCT026 BKN093 12/08 Q1015 NOSIG
Conditions at: GMMX (MARRAKECH/MENARA, MA) observed 1700 UTC 18 January 2018
Temperature: 12.0°C (54°F)
Dewpoint: 8.0°C (46°F) [RH = 76%]
Pressure (altimeter): 29.97 inches Hg (1015.0 mb)
Winds: from the W (260 degrees) at 14 MPH (12 knots; 6.2 m/s)
Visibility: 4 miles (7 km)
Ceiling: 9300 feet AGL
Clouds: few clouds at 1000 feet AGL
scattered clouds at 2600 feet AGL
broken clouds at 9300 feet AGL
Weather: no significant weather observed at this time

METAR text: GMMX 181630Z 24013KT 7000 FEW010 SCT026 BKN093 13/08 Q1015 NOSIG
Conditions at: GMMX (MARRAKECH/MENARA, MA) observed 1630 UTC 18 January 2018
Temperature: 13.0°C (55°F)
Dewpoint: 8.0°C (46°F) [RH = 72%]
Pressure (altimeter): 29.97 inches Hg (1015.0 mb)
Winds: from the WSW (240 degrees) at 15 MPH (13 knots; 6.8 m/s)
Visibility: 4 miles (7 km)
Ceiling: 9300 feet AGL
Clouds: few clouds at 1000 feet AGL
scattered clouds at 2600 feet AGL
broken clouds at 9300 feet AGL
Weather: no significant weather observed at this time

Forecast for: GMMX (MARRAKECH/MENARA, MA)
Text: TAF GMMX 181100Z 1812/1918 24004KT 0800 FG BKN010
Forecast period: 1200 UTC 18 January 2018 to 1800 UTC 19 January 2018
Forecast type: FROM: standard forecast or significant change
Winds: from the WSW (240 degrees) at 5 MPH (4 knots; 2.1 m/s)
Visibility: 0.50 miles (0.80 km)
Ceiling: 1000 feet AGL
Clouds: broken clouds at 1000 feet AGL
Weather: FG  (fog)
Text: BECMG 1812/1814 5000 NSW SCT026
Forecast period: 1200 UTC 18 January 2018 to 1800 UTC 19 January 2018
Forecast type: BECOMING: Conditions expected to become as follows by 1400 UTC 18 January 2018
Winds: from the WSW (240 degrees) at 5 MPH (4 knots; 2.1 m/s)
Visibility: 3 miles (5 km)
Clouds: scattered clouds at 2600 feet AGL
Weather: NSW  (no significant weather)
Text: TEMPO 1823/1910 2000 BR BKN013
Forecast period: 2300 UTC 18 January 2018 to 1000 UTC 19 January 2018
Forecast type: TEMPORARY: The following changes expected for less than half the time period
Visibility: 1.24 miles (2.00 km)
Ceiling: 1300 feet AGL
Clouds: broken clouds at 1300 feet AGL
Weather: BR  (mist)

 AIRPORT MAP

 RUNWAY INFORMATION
Runway 10 Runway length 10170 ft Runway width 148 ft
Runway elevation 1506 ft Runway displaced threshold 918 ft Runway heading 96
Runway 28 Runway length 10170 ft Runway width 148 ft
Runway elevation 1545 ft Runway displaced threshold 0 ft Runway heading 276

 AIRPORT FREQUENCIES
Type APP Name MARRAKECH Frequency 119.7 MHZ
Type TWR Name MARRAKECH Frequency 118.7 MHZ

 AIRPORT NEAR NAVIGATION AIDS
Type NDB Name Marrakech Frequency 267 KHZ
Type VOR-DME Name Marrakech Frequency 113300 KHZ



v2.6.1